Flight Track Log - Related Links

Times and Time Zones

All times are in EDT time to prevent confusion due to time zone crossing. See the C-FTOH flight status page for this flight to view local times or setup timezone preferences in your user account.

Time Position Orientation Groundspeed Altitude Reporting Facility
EDT Latitude Longitude Course Direction KTS MPH feet Rate Location/Type
Sun 04:26:33 PM 46.7980 -71.3840 44° Northeast 164 189 600  Level FlightAware ADS-B
Sun 04:27:03 PM 46.8160 -71.3610 41° Northeast 189 217 1,600 1,500 Climbing FlightAware ADS-B
Sun 04:27:33 PM 46.8380 -71.3320 42° Northeast 242 278 2,100 1,350 Climbing FlightAware ADS-B
Sun 04:27:43 PM 46.8460 -71.3210 43° Northeast 249 287 2,500 2,550 Climbing FlightAware ADS-B
Sun 04:28:13 PM 46.8740 -71.2870 40° Northeast 265 305 3,800 2,800 Climbing FlightAware ADS-B
Sun 04:28:28 PM 46.8870 -71.2690 43° Northeast 264 304 4,600 3,120 Climbing FlightAware ADS-B
Sun 04:28:38 PM 46.8950 -71.2560 48° Northeast 268 308 5,100 2,400 Climbing FlightAware ADS-B
Sun 04:28:53 PM 46.9010 -71.2310 71° East 267 307 5,600 1,600 Climbing FlightAware ADS-B
Sun 04:29:08 PM 46.8980 -71.2040 99° East 272 313 5,900 1,400 Climbing FlightAware ADS-B
Sun 04:29:23 PM 46.8870 -71.1820 126° Southeast 270 311 6,300 2,000 Climbing FlightAware ADS-B
Sun 04:29:38 PM 46.8710 -71.1720 157° South 254 292 6,900 2,550 Climbing FlightAware ADS-B
Sun 04:30:03 PM 46.8430 -71.1770 187° South 244 281 8,000 3,164 Climbing FlightAware ADS-B
Sun 04:30:33 PM 46.8110 -71.1910 197° South 236 272 9,800 2,571 Climbing FlightAware ADS-B
Sun 04:31:13 PM 46.7680 -71.2100 197° South 268 308 11,000 1,765 Climbing FlightAware ADS-B
Sun 04:31:58 PM 46.7120 -71.2340 196° South 297 342 12,300 2,259 Climbing FlightAware ADS-B
Sun 04:32:38 PM 46.6560 -71.2570 196° South 302 348 14,200 2,753 Climbing FlightAware ADS-B
Sun 04:33:23 PM 46.5960 -71.2830 197° South 306 352 16,200 2,541 Climbing FlightAware ADS-B
Sun 04:34:03 PM 46.5410 -71.3070 197° South 311 358 17,800 2,025 Climbing FlightAware ADS-B
Sun 04:34:43 PM 46.4860 -71.3300 196° South 329 379 18,900 1,553 Climbing FlightAware ADS-B
Sun 04:35:28 PM 46.4160 -71.3600 196° South 353 406 20,000 1,835 Climbing FlightAware ADS-B
Sun 04:36:08 PM 46.3540 -71.3860 196° South 356 410 21,500 2,025 Climbing FlightAware ADS-B
Sun 04:36:48 PM 46.2900 -71.4130 196° South 363 418 22,700 1,694 Climbing FlightAware ADS-B
Sun 04:37:33 PM 46.2170 -71.4430 196° South 376 433 23,900 1,624 Climbing FlightAware ADS-B
Sun 04:38:13 PM 46.1460 -71.4550 187° South 389 448 25,000 1,694 Climbing FlightAware ADS-B
Sun 04:38:58 PM 46.0650 -71.4630 184° South 391 450 26,300 1,624 Climbing FlightAware ADS-B
Sun 04:39:38 PM 45.9930 -71.4700 184° South 395 455 27,300 1,412 Climbing FlightAware ADS-B
Sun 04:40:23 PM 45.9110 -71.4780 184° South 401 461 28,300 1,271 Climbing FlightAware ADS-B
Sun 04:41:03 PM 45.8370 -71.4860 184° South 405 466 29,100 1,350 Climbing FlightAware ADS-B
Sun 04:41:43 PM 45.7640 -71.4970 186° South 395 455 30,100 1,482 Climbing FlightAware ADS-B
Sun 04:42:28 PM 45.6890 -71.5400 202° Southwest 384 442 31,200 1,341 Climbing FlightAware ADS-B
Sun 04:43:08 PM 45.6240 -71.5830 205° Southwest 384 442 32,000 1,271 Climbing FlightAware ADS-B
Sun 04:43:53 PM 45.5530 -71.6310 205° Southwest 384 442 33,000 1,200 Climbing FlightAware ADS-B
Sun 04:44:33 PM 45.4890 -71.6740 205° Southwest 384 442 33,700 1,125 Climbing FlightAware ADS-B
Sun 04:45:13 PM 45.4240 -71.7160 204° Southwest 383 441 34,500 988 Climbing FlightAware ADS-B
Sun 04:45:58 PM 45.3520 -71.7640 205° Southwest 384 442 35,100 776 Climbing FlightAware ADS-B
Sun 04:46:38 PM 45.2880 -71.8010 202° Southwest 390 449 35,600 635 Climbing FlightAware ADS-B
Sun 04:47:23 PM 45.2070 -71.8380 198° South 397 457 36,000 282 Climbing FlightAware ADS-B
Sun 04:48:03 PM 45.1370 -71.8700 198° South 398 458 36,000  Level FlightAware ADS-B
Sun 04:48:48 PM 45.0610 -71.9050 198° South 396 456 36,000  Level FlightAware ADS-B
Sun 04:49:28 PM 44.9910 -71.9370 198° South 394 453 36,000  Level FlightAware ADS-B
Sun 04:50:08 PM 44.9210 -71.9690 198° South 393 452 36,000  Level FlightAware ADS-B
Sun 04:50:53 PM 44.8420 -72.0040 197° South 393 452 36,000  Level FlightAware ADS-B
Sun 04:51:33 PM 44.7720 -72.0350 197° South 394 453 36,000  Level FlightAware ADS-B
Sun 04:52:13 PM 44.7030 -72.0670 198° South 393 452 36,000  Level FlightAware ADS-B
Sun 04:52:58 PM 44.6280 -72.1000 197° South 391 450 36,000  Level FlightAware ADS-B
Sun 04:53:38 PM 44.5610 -72.1300 198° South 391 450 36,000  Level FlightAware ADS-B
Sun 04:54:23 PM 44.4820 -72.1650 198° South 390 449 36,000  Level FlightAware ADS-B
Sun 04:55:03 PM 44.4140 -72.1950 197° South 388 447 36,000  Level FlightAware ADS-B
Sun 04:55:43 PM 44.3420 -72.2280 198° South 387 445 36,000  Level FlightAware ADS-B
Sun 04:56:28 PM 44.2670 -72.2610 197° South 391 450 36,000  Level FlightAware ADS-B
Sun 04:57:08 PM 44.1970 -72.2920 198° South 392 451 36,000  Level FlightAware ADS-B
Sun 04:57:53 PM 44.1180 -72.3260 197° South 394 453 36,000  Level FlightAware ADS-B
Sun 04:58:33 PM 44.0490 -72.3570 198° South 395 455 36,000  Level FlightAware ADS-B
Sun 04:59:13 PM 43.9780 -72.3880 197° South 394 453 36,000  Level FlightAware ADS-B
Sun 04:59:58 PM 43.9020 -72.4210 197° South 394 453 36,000  Level FlightAware ADS-B
Sun 05:00:38 PM 43.8330 -72.4510 197° South 395 455 36,000  Level FlightAware ADS-B
Sun 05:01:18 PM 43.7640 -72.4810 197° South 397 457 36,000  Level FlightAware ADS-B
Sun 05:01:53 PM 43.7000 -72.5090 198° South 398 458 36,000  Level FlightAware ADS-B
Sun 05:02:38 PM 43.6210 -72.5430 197° South 399 459 36,000  Level FlightAware ADS-B
Sun 05:03:18 PM 43.5510 -72.5730 197° South 399 459 36,000  Level FlightAware ADS-B
Sun 05:04:03 PM 43.4700 -72.6080 197° South 402 463 36,000  Level FlightAware ADS-B
Sun 05:04:43 PM 43.3990 -72.6390 198° South 400 460 36,000  Level FlightAware ADS-B
Sun 05:05:23 PM 43.3280 -72.6690 197° South 399 459 36,000  Level FlightAware ADS-B
Sun 05:06:08 PM 43.2540 -72.7010 197° South 399 459 36,000  Level FlightAware ADS-B
Sun 05:06:48 PM 43.1800 -72.7320 197° South 400 460 36,000  Level FlightAware ADS-B
Sun 05:07:28 PM 43.1100 -72.7620 197° South 401 461 36,000  Level FlightAware ADS-B
Sun 05:08:13 PM 43.0290 -72.7970 198° South 398 458 36,000  Level FlightAware ADS-B
Sun 05:08:53 PM 42.9590 -72.8260 197° South 397 457 36,000  Level FlightAware ADS-B
Sun 05:09:38 PM 42.8810 -72.8590 197° South 397 457 36,000  Level FlightAware ADS-B
Sun 05:10:18 PM 42.8110 -72.8890 197° South 398 458 36,000  Level FlightAware ADS-B
Sun 05:10:58 PM 42.7400 -72.9190 197° South 400 460 36,000  Level FlightAware ADS-B
Sun 05:11:43 PM 42.6610 -72.9520 197° South 402 463 36,000  Level FlightAware ADS-B
Sun 05:12:18 PM 42.5980 -72.9780 197° South 401 461 36,000  Level FlightAware ADS-B
Sun 05:13:08 PM 42.5120 -73.0130 197° South 398 458 36,000  Level FlightAware ADS-B
Sun 05:13:48 PM 42.4430 -73.0420 197° South 398 458 36,000  Level FlightAware ADS-B
Sun 05:14:28 PM 42.3710 -73.0720 197° South 395 455 36,000  Level FlightAware ADS-B
Sun 05:15:13 PM 42.2920 -73.1050 197° South 394 453 36,000  Level FlightAware ADS-B
Sun 05:15:53 PM 42.2220 -73.1370 199° South 385 443 36,000  Level FlightAware ADS-B
Sun 05:16:38 PM 42.1580 -73.1800 206° Southwest 382 440 36,000  Level FlightAware ADS-B
Sun 05:17:18 PM 42.1050 -73.2170 207° Southwest 382 440 36,000  Level FlightAware ADS-B
Sun 05:17:58 PM 42.0290 -73.2730 209° Southwest 386 444 36,000  Level FlightAware ADS-B
Sun 05:18:58 PM 41.9350 -73.3390 208° Southwest 386 444 36,000  Level FlightAware ADS-B
Sun 05:19:38 PM 41.8680 -73.3870 208° Southwest 386 444 36,000  Level FlightAware ADS-B
Sun 05:20:18 PM 41.8060 -73.4300 207° Southwest 386 444 36,000  Level FlightAware ADS-B
Sun 05:20:58 PM 41.7400 -73.4760 207° Southwest 386 444 36,000  Level FlightAware ADS-B
Sun 05:21:21 PM 41.7006 -73.5036 208° Southwest 386 444 36,000  Level FlightAware ADS-B
Sun 05:21:55 PM 41.6481 -73.5403 208° Southwest 385 443 36,000  Level FlightAware ADS-B
Sun 05:22:34 PM 41.5863 -73.5835 208° Southwest 385 443 36,000  Level FlightAware ADS-B
Sun 05:23:04 PM 41.5388 -73.6163 207° Southwest 385 443 36,000  Level FlightAware ADS-B
Sun 05:23:36 PM 41.4879 -73.6515 207° Southwest 385 443 36,000  Level FlightAware ADS-B
Sun 05:24:06 PM 41.4404 -73.6845 208° Southwest 386 444 36,000  Level FlightAware ADS-B
Sun 05:24:37 PM 41.3914 -73.7183 207° Southwest 387 445 36,000  Level FlightAware ADS-B
Sun 05:25:08 PM 41.3427 -73.7516 207° Southwest 386 444 36,000  Level FlightAware ADS-B
Sun 05:25:28 PM 41.3107 -73.7737 207° Southwest 386 444 36,000  Level FlightAware ADS-B
Sun 05:25:41 PM 41.2902 -73.7879 207° Southwest 386 444 36,000  Level FlightAware ADS-B
Sun 05:25:59 PM 41.2624 -73.8071 207° Southwest 386 444 36,000  Level FlightAware ADS-B
Sun 05:26:15 PM 41.2374 -73.8243 207° Southwest 386 444 36,000  Level FlightAware ADS-B
Sun 05:26:51 PM 41.1798 -73.8638 207° Southwest 386 444 36,000  Level FlightAware ADS-B
Sun 05:27:24 PM 41.1279 -73.8992 207° Southwest 386 444 36,000  Level FlightAware ADS-B
Sun 05:27:25 PM 41.1253 -73.9011 209° Southwest 386 444 36,000  Level FlightAware ADS-B
Sun 05:27:55 PM 41.0779 -73.9334 207° Southwest 387 445 36,000  Level FlightAware ADS-B
Sun 05:27:56 PM 41.0765 -73.9344 208° Southwest 388 447 36,000  Level FlightAware ADS-B
Sun 05:28:25 PM 41.0300 -73.9660 207° Southwest 390 449 36,000  Level FlightAware ADS-B
Sun 05:28:59 PM 40.9753 -74.0033 207° Southwest 391 450 36,000  Level FlightAware ADS-B
Sun 05:29:10 PM 40.9577 -74.0153 207° Southwest 392 451 36,000  Level FlightAware ADS-B
Sun 05:29:41 PM 40.9082 -74.0489 207° Southwest 394 453 36,000  Level FlightAware ADS-B
Sun 05:29:44 PM 40.9032 -74.0523 207° Southwest 393 452 36,000  Level FlightAware ADS-B
Sun 05:30:12 PM 40.8575 -74.0832 207° Southwest 392 451 36,000  Level FlightAware ADS-B
Sun 05:30:16 PM 40.8515 -74.0873 207° Southwest 393 452 36,000  Level FlightAware ADS-B
Sun 05:30:53 PM 40.7920 -74.1276 207° Southwest 390 449 36,000  Level FlightAware ADS-B
Sun 05:31:02 PM 40.7778 -74.1371 207° Southwest 390 449 36,000  Level FlightAware ADS-B
Sun 05:31:27 PM 40.7380 -74.1639 207° Southwest 390 449 36,000  Level FlightAware ADS-B
Sun 05:31:59 PM 40.6863 -74.1988 207° Southwest 389 448 36,000  Level FlightAware ADS-B
Sun 05:32:31 PM 40.6345 -74.2337 207° Southwest 389 448 36,000  Level FlightAware ADS-B
Sun 05:33:04 PM 40.5829 -74.2684 207° Southwest 389 448 36,000  Level FlightAware ADS-B
Sun 05:33:31 PM 40.5394 -74.2974 207° Southwest 36,000  Level FlightAware ADS-B
Sun 05:33:35 PM 40.5321 -74.3024 208° Southwest 387 445 36,000  Level FlightAware ADS-B
Sun 05:33:54 PM 40.5016 -74.3227 207° Southwest 387 445 36,000  Level FlightAware ADS-B
Sun 05:34:05 PM 40.4844 -74.3342 207° Southwest 388 447 36,000  Level FlightAware ADS-B
Sun 05:34:36 PM 40.4355 -74.3671 207° Southwest 386 444 36,000  Level FlightAware ADS-B
Sun 05:35:08 PM 40.3847 -74.4010 207° Southwest 387 445 36,000  Level FlightAware ADS-B
Sun 05:35:45 PM 40.3245 -74.4410 207° Southwest 388 447 36,000  Level FlightAware ADS-B
Sun 05:36:16 PM 40.2761 -74.4731 207° Southwest 389 448 36,000  Level FlightAware ADS-B
Sun 05:36:46 PM 40.2277 -74.5053 207° Southwest 390 449 36,000  Level FlightAware ADS-B
Sun 05:37:18 PM 40.1763 -74.5393 207° Southwest 391 450 36,000  Level FlightAware ADS-B
Sun 05:37:49 PM 40.1266 -74.5722 207° Southwest 392 451 36,000  Level FlightAware ADS-B
Sun 05:38:20 PM 40.0756 -74.6059 207° Southwest 394 453 36,000  Level FlightAware ADS-B
Sun 05:38:50 PM 40.0265 -74.6383 207° Southwest 394 453 36,000  Level FlightAware ADS-B
Sun 05:39:21 PM 39.9768 -74.6710 207° Southwest 394 453 36,000  Level FlightAware ADS-B
Sun 05:39:51 PM 39.9280 -74.7032 207° Southwest 396 456 36,000  Level FlightAware ADS-B
Sun 05:40:28 PM 39.8671 -74.7431 207° Southwest 396 456 36,000  Level FlightAware ADS-B
Sun 05:41:02 PM 39.8112 -74.7797 207° Southwest 398 458 36,000  Level FlightAware ADS-B
Sun 05:41:34 PM 39.7581 -74.8144 207° Southwest 399 459 36,000  Level FlightAware ADS-B
Sun 05:42:05 PM 39.7083 -74.8470 207° Southwest 400 460 36,000  Level FlightAware ADS-B
Sun 05:42:39 PM 39.6509 -74.8843 207° Southwest 401 461 36,000  Level FlightAware ADS-B
Sun 05:43:10 PM 39.6002 -74.9172 207° Southwest 401 461 36,000  Level FlightAware ADS-B
Sun 05:43:46 PM 39.5406 -74.9558 207° Southwest 400 460 36,000  Level FlightAware ADS-B
Sun 05:44:17 PM 39.4895 -74.9888 206° Southwest 399 459 36,000  Level FlightAware ADS-B
Sun 05:44:48 PM 39.4377 -75.0201 205° Southwest 400 460 36,000  Level FlightAware ADS-B
Sun 05:45:18 PM 39.3867 -75.0504 205° Southwest 399 459 36,000  Level FlightAware ADS-B
Sun 05:45:48 PM 39.3361 -75.0810 205° Southwest 399 459 36,000  Level FlightAware ADS-B
Sun 05:46:35 PM 39.2585 -75.1276 205° Southwest 400 460 36,000  Level FlightAware ADS-B
Sun 05:47:13 PM 39.1941 -75.1663 205° Southwest 400 460 36,000  Level FlightAware ADS-B
Sun 05:47:45 PM 39.1408 -75.1986 205° Southwest 401 461 36,000  Level FlightAware ADS-B
Sun 05:48:15 PM 39.0895 -75.2293 205° Southwest 402 463 36,000  Level FlightAware ADS-B
Sun 05:48:46 PM 39.0370 -75.2606 205° Southwest 403 464 36,000  Level FlightAware ADS-B
Sun 05:49:18 PM 38.9950 -75.2860 205° Southwest 402 463 36,000  Level FlightAware ADS-B
Sun 05:49:29 PM 38.9647 -75.3038 205° Southwest 403 464 36,000  Level FlightAware ADS-B
Sun 05:50:00 PM 38.9126 -75.3349 205° Southwest 402 463 36,000  Level FlightAware ADS-B
Sun 05:50:43 PM 38.8460 -75.3750 205° Southwest 401 461 36,000  Level FlightAware ADS-B
Sun 05:50:58 PM 38.8147 -75.3931 204° Southwest 400 460 36,000  Level FlightAware ADS-B
Sun 05:51:28 PM 38.7710 -75.4190 205° Southwest 399 459 36,000  Level FlightAware ADS-B
Sun 05:51:31 PM 38.7606 -75.4251 205° Southwest 398 458 36,000  Level FlightAware ADS-B
Sun 05:52:06 PM 38.7022 -75.4597 205° Southwest 397 457 36,000  Level FlightAware ADS-B
Sun 05:52:36 PM 38.6520 -75.4893 205° Southwest 396 456 36,000  Level FlightAware ADS-B
Sun 05:53:08 PM 38.5990 -75.5205 205° Southwest 396 456 36,000  Level FlightAware ADS-B
Sun 05:53:45 PM 38.5370 -75.5570 205° Southwest 395 455 36,000  Level FlightAware ADS-B
Sun 05:54:15 PM 38.4872 -75.5862 205° Southwest 395 455 36,000  Level FlightAware ADS-B
Sun 05:54:49 PM 38.4320 -75.6187 205° Southwest 395 455 36,000  Level FlightAware ADS-B
Sun 05:55:20 PM 38.3803 -75.6490 205° Southwest 395 455 36,000  Level FlightAware ADS-B
Sun 05:56:17 PM 38.2853 -75.7046 205° Southwest 394 453 36,000  Level FlightAware ADS-B
Sun 05:56:54 PM 38.2244 -75.7400 205° Southwest 394 453 36,000  Level FlightAware ADS-B
Sun 05:57:30 PM 38.1642 -75.7751 205° Southwest 395 455 36,000  Level FlightAware ADS-B
Sun 05:58:01 PM 38.1133 -75.8046 205° Southwest 395 455 36,000  Level FlightAware ADS-B
Sun 05:59:08 PM 38.0090 -75.8650 205° Southwest 397 457 36,000  Level FlightAware ADS-B
Sun 05:59:22 PM 37.9782 -75.8829 205° Southwest 397 457 36,000  Level FlightAware ADS-B
Sun 05:59:53 PM 37.9350 -75.9080 205° Southwest 398 458 36,000  Level FlightAware ADS-B
Sun 05:59:58 PM 37.9179 -75.9176 204° Southwest 397 457 36,000  Level FlightAware ADS-B
Sun 06:00:30 PM 37.8646 -75.9484 205° Southwest 396 456 36,000  Level FlightAware ADS-B
Sun 06:01:01 PM 37.8139 -75.9776 204° Southwest 396 456 36,000  Level FlightAware ADS-B
Sun 06:02:08 PM 37.7300 -76.0250 204° Southwest 395 455 36,000  Level FlightAware ADS-B
Sun 06:02:53 PM 37.6390 -76.0780 205° Southwest 400 460 36,000  Level FlightAware ADS-B
Sun 06:03:48 PM 37.5600 -76.1230 204° Southwest 401 461 36,000  Level FlightAware ADS-B
Sun 06:04:28 PM 37.4830 -76.1670 204° Southwest 401 461 36,000  Level FlightAware ADS-B
Sun 06:04:46 PM 37.4344 -76.1947 204° Southwest 401 461 36,000  Level FlightAware ADS-B
Sun 06:05:17 PM 37.3830 -76.2240 204° Southwest 400 460 36,000  Level FlightAware ADS-B
Sun 06:05:49 PM 37.3287 -76.2547 204° Southwest 400 460 36,000  Level FlightAware ADS-B
Sun 06:06:21 PM 37.2743 -76.2857 204° Southwest 401 461 36,000  Level FlightAware ADS-B
Sun 06:06:53 PM 37.2204 -76.3162 204° Southwest 401 461 36,000  Level FlightAware ADS-B
Sun 06:07:23 PM 37.1691 -76.3452 204° Southwest 401 461 36,000  Level FlightAware ADS-B
Sun 06:08:13 PM 37.1050 -76.3810 204° Southwest 402 463 36,000  Level FlightAware ADS-B
Sun 06:08:53 PM 37.0240 -76.4270 204° Southwest 403 464 36,000  Level FlightAware ADS-B
Sun 06:09:28 PM 36.9640 -76.4610 204° Southwest 404 465 36,000  Level FlightAware ADS-B
Sun 06:10:13 PM 36.8850 -76.5030 203° Southwest 407 468 36,000  Level FlightAware ADS-B
Sun 06:11:18 PM 36.7760 -76.5480 198° South 409 471 36,000  Level FlightAware ADS-B
Sun 06:11:48 PM 36.7310 -76.5660 198° South 409 471 36,000  Level FlightAware ADS-B
Sun 06:12:53 PM 36.6100 -76.6170 199° South 411 473 36,000  Level FlightAware ADS-B
Sun 06:13:36 PM 36.5440 -76.6430 198° South 411 473 36,000  Level FlightAware ADS-B
Sun 06:14:17 PM 36.4810 -76.6690 198° South 411 473 36,000  Level FlightAware ADS-B
Sun 06:14:53 PM 36.4250 -76.6910 198° South 411 473 36,000  Level FlightAware ADS-B
Sun 06:15:43 PM 36.3490 -76.7220 198° South 411 473 36,000  Level FlightAware ADS-B
Sun 06:16:23 PM 36.2870 -76.7470 198° South 411 473 36,000  Level FlightAware ADS-B
Sun 06:17:03 PM 36.2260 -76.7720 198° South 411 473 36,000  Level FlightAware ADS-B
Sun 06:17:43 PM 36.1640 -76.7960 197° South 411 473 36,000  Level FlightAware ADS-B
Sun 06:18:23 PM 36.1030 -76.8210 198° South 411 473 36,000  Level FlightAware ADS-B
Sun 06:19:13 PM 36.0260 -76.8520 198° South 411 473 36,000  Level FlightAware ADS-B
Sun 06:19:53 PM 35.9640 -76.8770 198° South 411 473 36,000  Level FlightAware ADS-B
Sun 06:20:33 PM 35.9030 -76.9010 198° South 411 473 36,000  Level FlightAware ADS-B
Sun 06:21:13 PM 35.8410 -76.9260 198° South 411 473 36,000  Level FlightAware ADS-B
Sun 06:21:53 PM 35.7800 -76.9510 198° South 411 473 36,000  Level FlightAware ADS-B
Sun 06:22:43 PM 35.5380 -77.0560 199° South 406 467 36,000  Level FlightAware ADS-B
Sun 06:23:33 PM 35.4530 -77.0900 198° South 407 468 36,000  Level FlightAware ADS-B
Sun 06:24:18 PM 35.3780 -77.1200 198° South 407 468 36,000  Level FlightAware ADS-B
Sun 06:24:58 PM 35.3170 -77.1440 198° South 407 468 36,000  Level FlightAware ADS-B
Sun 06:25:38 PM 35.2560 -77.1680 198° South 407 468 36,000  Level FlightAware ADS-B
Sun 06:26:28 PM 35.1800 -77.1990 198° South 407 468 36,000  Level FlightAware ADS-B
Sun 06:27:08 PM 35.1190 -77.2230 198° South 407 468 36,000  Level FlightAware ADS-B
Sun 06:27:48 PM 35.0590 -77.2470 198° South 407 468 36,000  Level FlightAware ADS-B
Sun 06:28:28 PM 34.9980 -77.2710 198° South 407 468 36,000  Level FlightAware ADS-B
Sun 06:29:08 PM 34.9370 -77.2950 198° South 407 468 36,000  Level FlightAware ADS-B
Sun 06:29:58 PM 34.8610 -77.3260 199° South 407 468 36,000  Level FlightAware ADS-B
Sun 06:30:38 PM 34.8000 -77.3500 198° South 407 468 36,000  Level FlightAware ADS-B
Sun 06:31:18 PM 34.7390 -77.3740 198° South 407 468 36,000  Level FlightAware ADS-B
Sun 06:31:58 PM 34.6780 -77.3980 198° South 407 468 36,000  Level FlightAware ADS-B
Sun 06:32:48 PM 34.6020 -77.4280 198° South 407 468 36,000  Level FlightAware ADS-B
Sun 06:33:28 PM 34.5410 -77.4520 198° South 407 468 36,000 -79 Level FlightAware ADS-B
Sun 06:34:04 PM 34.2764 -77.5581 198° South 419 482 35,900  Descending Jacksonville Center
Sun 06:35:04 PM 34.1717 -77.5944 196° South 419 482 36,000 50 Climbing Jacksonville Center
Sun 06:36:04 PM 34.0589 -77.6414 199° South 430 495 36,000  Level Jacksonville Center
Sun 06:37:04 PM 33.9458 -77.6833 197° South 430 495 36,000  Level Jacksonville Center
Sun 06:38:04 PM 33.8328 -77.7275 198° South 430 495 36,000  Level Jacksonville Center
Sun 06:39:04 PM 33.7219 -77.7714 198° South 430 495 36,000 -50 Level Jacksonville Center
Sun 06:40:04 PM 33.6069 -77.8156 198° South 435 501 35,900  Descending Jacksonville Center
Sun 06:41:04 PM 33.4939 -77.8594 198° South 435 501 36,000 50 Climbing Jacksonville Center
Sun 06:42:04 PM 33.3831 -77.9006 197° South 435 501 36,000  Level Jacksonville Center
Sun 06:43:04 PM 33.2719 -77.9414 197° South 429 494 36,000  Level Jacksonville Center
Sun 06:44:04 PM 33.1589 -77.9850 198° South 429 494 36,000  Level Jacksonville Center
Sun 06:46:04 PM 32.9306 -78.0717 198° South 434 499 36,000  Level Jacksonville Center
Sun 06:47:04 PM 32.8153 -78.1125 197° South 434 499 36,000  Level Jacksonville Center
Sun 06:48:04 PM 32.7022 -78.1578 199° South 434 499 36,000  Level Jacksonville Center
Sun 06:49:04 PM 32.5869 -78.2008 197° South 434 499 36,000 -50 Level Jacksonville Center
Sun 06:50:04 PM 32.4736 -78.2411 197° South 434 499 35,900  Descending Jacksonville Center
Sun 06:51:04 PM 32.3603 -78.2864 199° South 434 499 36,000 50 Climbing Jacksonville Center
Sun 06:52:04 PM 32.2367 -78.3319 197° South 434 499 36,000  Level Jacksonville Center
Sun 06:53:04 PM 32.1214 -78.3744 197° South 434 499 36,000  Level Jacksonville Center
Sun 06:54:04 PM 32.0081 -78.4142 197° South 434 499 36,000  Level Jacksonville Center
Sun 06:55:04 PM 31.8944 -78.4517 196° South 434 499 36,000  Level Jacksonville Center
Sun 06:56:04 PM 31.7831 -78.4886 196° South 429 494 36,000  Level Jacksonville Center
Sun 06:57:04 PM 31.6697 -78.5308 198° South 429 494 36,000  Level Jacksonville Center
Sun 06:58:04 PM 31.5564 -78.5703 197° South 427 491 36,000  Level Jacksonville Center
Sun 06:59:04 PM 31.4406 -78.6072 195° South 432 497 36,000  Level Jacksonville Center
Sun 07:00:04 PM 31.3272 -78.6464 196° South 432 497 36,000  Level Jacksonville Center
Sun 07:01:04 PM 31.2097 -78.6883 197° South 437 503 36,000  Level Jacksonville Center
Sun 07:02:04 PM 31.0961 -78.7247 195° South 432 497 36,000  Level Jacksonville Center
Sun 07:03:04 PM 30.9825 -78.7661 197° South 437 503 36,000 -50 Level Jacksonville Center
Sun 07:04:04 PM 30.8647 -78.8053 196° South 437 503 35,900  Descending Jacksonville Center
Sun 07:05:04 PM 30.7450 -78.8442 196° South 437 503 36,000 35 Climbing Jacksonville Center
Sun 07:06:56 PM 30.5406 -78.9119 196° South 429 494 36,000  Level Miami Center
Sun 07:07:56 PM 30.4297 -78.9483 196° South 424 488 36,000 -50 Level Miami Center
Sun 07:08:56 PM 30.3061 -78.9842 194° South 434 499 35,900  Descending Miami Center
Sun 07:09:56 PM 30.1892 -79.0131 192° South 440 506 36,000  Climbing Miami Center
Sun 07:10:56 PM 30.0656 -79.0467 193° South 440 506 35,900  Descending Miami Center
Sun 07:11:56 PM 29.9544 -79.0825 196° South 434 499 36,000 50 Climbing Miami Center
Sun 07:12:56 PM 29.8414 -79.1161 194° South 434 499 36,000  Level Miami Center
Sun 07:13:56 PM 29.7200 -79.1447 192° South 434 499 36,000  Level Miami Center
Sun 07:14:56 PM 29.6025 -79.1806 195° South 434 499 36,000  Level Miami Center
Sun 07:15:56 PM 29.4853 -79.2114 193° South 434 499 36,000  Level Miami Center
Sun 07:16:56 PM 29.3619 -79.2372 190° South 434 499 36,000  Level Miami Center
Sun 07:17:56 PM 29.2444 -79.2703 194° South 434 499 36,000  Level Miami Center
Sun 07:24:08 PM 28.5000 -79.4660 194° South 428 493 36,000  Level FlightAware ADS-B
Sun 07:24:48 PM 28.4200 -79.4860 192° South 428 493 36,000  Level FlightAware ADS-B
Sun 07:25:43 PM 28.3140 -79.5140 193° South 429 494 36,000  Level FlightAware ADS-B
Sun 07:26:23 PM 28.2340 -79.5350 193° South 428 493 36,000  Level FlightAware ADS-B
Sun 07:27:08 PM 28.1420 -79.5590 193° South 428 493 36,000  Level FlightAware ADS-B
Sun 07:27:48 PM 28.0680 -79.5780 193° South 427 491 36,000  Level FlightAware ADS-B
Sun 07:28:33 PM 27.9800 -79.6010 193° South 426 490 36,000  Level FlightAware ADS-B
Sun 07:29:08 PM 27.9070 -79.6200 193° South 426 490 36,000 -353 Level FlightAware ADS-B
Sun 07:29:58 PM 27.8070 -79.6460 193° South 432 497 35,500 -1,000 Descending FlightAware ADS-B
Sun 07:30:38 PM 27.7330 -79.6660 193° South 432 497 34,500 -2,400 Descending FlightAware ADS-B
Sun 07:31:18 PM 27.6550 -79.6800 189° South 452 520 32,300 -3,812 Descending FlightAware ADS-B
Sun 07:32:03 PM 27.5520 -79.6810 180° South 463 533 29,100 -3,318 Descending FlightAware ADS-B
Sun 07:32:43 PM 27.4720 -79.6810 180° South 449 517 27,600 -2,400 Descending FlightAware ADS-B
Sun 07:33:38 PM 27.3590 -79.6810 180° South 431 496 25,300 -2,533 Descending FlightAware ADS-B
Sun 07:34:13 PM 27.2820 -79.6810 180° South 422 486 23,800 -2,471 Descending FlightAware ADS-B
Sun 07:35:03 PM 27.1840 -79.6820 181° South 419 482 21,800 -2,337 Descending FlightAware ADS-B
Sun 07:35:48 PM 27.1000 -79.6820 180° South 401 461 20,100 -2,259 Descending FlightAware ADS-B
Sun 07:36:28 PM 27.0270 -79.6830 181° South 400 460 18,600 -2,320 Descending FlightAware ADS-B
Sun 07:37:03 PM 26.9590 -79.6830 180° South 383 441 17,200 -2,329 Descending FlightAware ADS-B
Sun 07:37:53 PM 26.8710 -79.6840 181° South 374 430 15,300 -2,267 Descending FlightAware ADS-B
Sun 07:38:33 PM 26.8020 -79.6840 180° South 367 422 13,800 -2,274 Descending FlightAware ADS-B
Sun 07:39:28 PM 26.7110 -79.7020 190° South 355 409 11,700 -2,040 Descending FlightAware ADS-B
Sun 07:40:13 PM 26.6430 -79.7350 203° Southwest 336 387 10,400 -1,200 Descending FlightAware ADS-B
Sun 07:40:53 PM 26.5850 -79.7630 203° Southwest 299 344 10,000 -514 Descending FlightAware ADS-B
Sun 07:41:23 PM 26.5490 -79.7800 203° Southwest 284 327 9,800 -873 Descending FlightAware ADS-B
Sun 07:41:48 PM 26.5170 -79.7950 203° Southwest 280 322 9,200 -1,309 Descending FlightAware ADS-B
Sun 07:42:18 PM 26.4840 -79.8110 203° Southwest 276 318 8,600 -1,418 Descending FlightAware ADS-B
Sun 07:42:43 PM 26.4510 -79.8260 202° Southwest 269 310 7,900 -873 Descending FlightAware ADS-B
Sun 07:43:13 PM 26.4200 -79.8410 203° Southwest 262 302 7,800  Descending FlightAware ADS-B
Sun 07:43:43 PM 26.3820 -79.8610 205° Southwest 270 311 7,900  Climbing FlightAware ADS-B
Sun 07:44:08 PM 26.3600 -79.8810 219° Southwest 280 322 7,800 -1,091 Descending FlightAware ADS-B
Sun 07:44:38 PM 26.3270 -79.9120 220° Southwest 282 325 6,900 -1,000 Descending FlightAware ADS-B
Sun 07:45:08 PM 26.2990 -79.9390 221° Southwest 281 323 6,800  Descending FlightAware ADS-B
Sun 07:45:28 PM 26.2780 -79.9600 222° Southwest 280 322 6,900 109 Climbing FlightAware ADS-B
Sun 07:46:03 PM 26.2460 -79.9900 220° Southwest 279 321 6,900  Level FlightAware ADS-B
Sun 07:46:28 PM 26.2190 -80.0160 221° Southwest 278 320 6,900  Level FlightAware ADS-B
Sun 07:46:43 PM 26.2040 -80.0300 220° Southwest 278 320 6,900  Level FlightAware ADS-B
Sun 07:47:13 PM 26.1780 -80.0630 229° Southwest 276 318 6,900  Level FlightAware ADS-B
Sun 07:47:38 PM 26.1690 -80.0960 253° West 275 316 6,900  Level FlightAware ADS-B
Sun 07:48:08 PM 26.1580 -80.1370 253° West 274 315 6,900 -300 Level FlightAware ADS-B
Sun 07:48:38 PM 26.1530 -80.1750 262° West 262 302 6,600 -545 Descending FlightAware ADS-B
Sun 07:49:03 PM 26.1530 -80.2110 270° West 243 280 6,400 -738 Descending FlightAware ADS-B
Sun 07:49:43 PM 26.1530 -80.2580 270° West 235 270 5,800 -1,114 Descending FlightAware ADS-B
Sun 07:50:13 PM 26.1530 -80.2940 270° West 235 270 5,100 -1,418 Descending FlightAware ADS-B
Sun 07:50:38 PM 26.1480 -80.3230 259° West 220 253 4,500 -1,650 Descending FlightAware ADS-B
Sun 07:50:53 PM 26.1370 -80.3350 224° Southwest 208 239 4,000 -1,800 Descending FlightAware ADS-B
Sun 07:51:08 PM 26.1230 -80.3380 191° South 208 239 3,600 -1,600 Descending FlightAware ADS-B
Sun 07:51:23 PM 26.1100 -80.3340 165° South 191 220 3,200 -1,600 Descending FlightAware ADS-B
Sun 07:51:38 PM 26.1020 -80.3240 132° Southeast 182 209 2,800 -1,650 Descending FlightAware ADS-B
Sun 07:52:03 PM 26.0920 -80.3020 117° Southeast 182 209 2,100 -1,200 Descending FlightAware ADS-B
Sun 07:52:33 PM 26.0820 -80.2790 116° Southeast 164 189 1,700 -655 Descending FlightAware ADS-B
Sun 07:52:58 PM 26.0780 -80.2600 103° East 157 181 1,500 -600 Descending FlightAware ADS-B
Sun 07:53:13 PM 26.0780 -80.2470 90° East 148 170 1,300 -800 Descending FlightAware ADS-B
Sun 07:53:43 PM 26.0770 -80.2250 93° East 141 162 900 -764 Descending FlightAware ADS-B
Sun 07:54:08 PM 26.0770 -80.2070 90° East 139 160 600 -750 Descending FlightAware ADS-B
Sun 07:54:23 PM 26.0770 -80.1980 90° East 141 162 400 -436 Descending FlightAware ADS-B
Sun 07:55:03 PM 26.0770 -80.1680 90° East 143 165 200 -300 Descending FlightAware ADS-B
Sun 08:02:00 PM 26.0667 -80.1500 103° East  Level FlightAware Approximate
Sun 08:03:00 PM 26.0726 -80.1527 103° East  Level Estimated

Login

Don't have an account? Register now (free) for customized features, flight alerts, and more!